sensor_id;sensor_type;location;lat;lon;timestamp;P1;durP1;ratioP1;P2;durP2;ratioP2
9848;SDS011;4963;51.444;6.528;2023-09-08T00:00:19;6.15;;;5.25;;
9848;SDS011;4963;51.444;6.528;2023-09-08T00:02:45;9.43;;;5.72;;
9848;SDS011;4963;51.444;6.528;2023-09-08T00:07:49;8.13;;;5.70;;
9848;SDS011;4963;51.444;6.528;2023-09-08T00:10:16;7.57;;;5.78;;
9848;SDS011;4963;51.444;6.528;2023-09-08T00:12:43;6.43;;;5.80;;
9848;SDS011;4963;51.444;6.528;2023-09-08T00:15:10;6.90;;;5.57;;
9848;SDS011;4963;51.444;6.528;2023-09-08T00:17:37;6.50;;;5.90;;
9848;SDS011;4963;51.444;6.528;2023-09-08T00:20:05;5.85;;;5.20;;
9848;SDS011;4963;51.444;6.528;2023-09-08T00:22:34;9.32;;;5.72;;
9848;SDS011;4963;51.444;6.528;2023-09-08T00:25:03;8.18;;;5.43;;
9848;SDS011;4963;51.444;6.528;2023-09-08T00:27:30;5.97;;;5.38;;
9848;SDS011;4963;51.444;6.528;2023-09-08T00:29:57;5.82;;;5.20;;
9848;SDS011;4963;51.444;6.528;2023-09-08T00:32:27;7.13;;;5.90;;
9848;SDS011;4963;51.444;6.528;2023-09-08T00:34:53;6.03;;;5.43;;
9848;SDS011;4963;51.444;6.528;2023-09-08T00:37:22;6.45;;;5.40;;
9848;SDS011;4963;51.444;6.528;2023-09-08T00:39:49;7.78;;;5.15;;
9848;SDS011;4963;51.444;6.528;2023-09-08T00:42:17;7.97;;;5.65;;
9848;SDS011;4963;51.444;6.528;2023-09-08T00:44:44;7.40;;;5.60;;
9848;SDS011;4963;51.444;6.528;2023-09-08T00:47:11;6.85;;;5.72;;
9848;SDS011;4963;51.444;6.528;2023-09-08T00:49:38;7.53;;;6.05;;
9848;SDS011;4963;51.444;6.528;2023-09-08T00:52:05;8.13;;;5.50;;
9848;SDS011;4963;51.444;6.528;2023-09-08T00:54:32;8.15;;;6.18;;
9848;SDS011;4963;51.444;6.528;2023-09-08T00:56:59;7.40;;;5.38;;
9848;SDS011;4963;51.444;6.528;2023-09-08T00:59:30;6.45;;;5.75;;
9848;SDS011;4963;51.444;6.528;2023-09-08T01:01:58;7.15;;;5.57;;
9848;SDS011;4963;51.444;6.528;2023-09-08T01:04:25;7.03;;;5.97;;
9848;SDS011;4963;51.444;6.528;2023-09-08T01:06:52;7.35;;;5.60;;
9848;SDS011;4963;51.444;6.528;2023-09-08T01:09:20;7.57;;;6.03;;
9848;SDS011;4963;51.444;6.528;2023-09-08T01:11:47;8.05;;;5.78;;
9848;SDS011;4963;51.444;6.528;2023-09-08T01:14:17;6.70;;;6.00;;
9848;SDS011;4963;51.444;6.528;2023-09-08T01:16:46;9.25;;;5.80;;
9848;SDS011;4963;51.444;6.528;2023-09-08T01:19:14;9.90;;;6.00;;
9848;SDS011;4963;51.444;6.528;2023-09-08T01:21:57;6.60;;;5.88;;
9848;SDS011;4963;51.444;6.528;2023-09-08T01:25:11;9.18;;;5.78;;
9848;SDS011;4963;51.444;6.528;2023-09-08T01:27:43;7.07;;;5.78;;
9848;SDS011;4963;51.444;6.528;2023-09-08T01:30:13;7.25;;;5.50;;
9848;SDS011;4963;51.444;6.528;2023-09-08T01:32:41;9.48;;;5.90;;
9848;SDS011;4963;51.444;6.528;2023-09-08T01:35:09;7.78;;;5.53;;
9848;SDS011;4963;51.444;6.528;2023-09-08T01:37:39;7.18;;;6.18;;
9848;SDS011;4963;51.444;6.528;2023-09-08T01:40:07;5.82;;;5.28;;
9848;SDS011;4963;51.444;6.528;2023-09-08T01:42:36;6.45;;;5.80;;
9848;SDS011;4963;51.444;6.528;2023-09-08T01:45:04;6.68;;;5.53;;
9848;SDS011;4963;51.444;6.528;2023-09-08T01:47:31;6.88;;;5.78;;
9848;SDS011;4963;51.444;6.528;2023-09-08T01:49:59;8.00;;;5.88;;
9848;SDS011;4963;51.444;6.528;2023-09-08T01:52:26;7.60;;;5.90;;
9848;SDS011;4963;51.444;6.528;2023-09-08T01:54:53;8.07;;;5.45;;
9848;SDS011;4963;51.444;6.528;2023-09-08T01:57:20;7.78;;;6.03;;
9848;SDS011;4963;51.444;6.528;2023-09-08T01:59:48;6.35;;;5.75;;
9848;SDS011;4963;51.444;6.528;2023-09-08T02:02:15;7.90;;;5.40;;
9848;SDS011;4963;51.444;6.528;2023-09-08T02:04:42;11.80;;;5.90;;
9848;SDS011;4963;51.444;6.528;2023-09-08T02:07:09;7.25;;;6.00;;
9848;SDS011;4963;51.444;6.528;2023-09-08T02:09:37;6.82;;;5.63;;
9848;SDS011;4963;51.444;6.528;2023-09-08T02:12:04;8.27;;;5.90;;
9848;SDS011;4963;51.444;6.528;2023-09-08T02:14:31;9.40;;;6.28;;
9848;SDS011;4963;51.444;6.528;2023-09-08T02:17:00;7.78;;;6.00;;
9848;SDS011;4963;51.444;6.528;2023-09-08T02:19:27;7.22;;;5.47;;
9848;SDS011;4963;51.444;6.528;2023-09-08T02:21:54;6.57;;;5.53;;
9848;SDS011;4963;51.444;6.528;2023-09-08T02:24:21;6.57;;;5.88;;
9848;SDS011;4963;51.444;6.528;2023-09-08T02:26:49;8.10;;;5.43;;
9848;SDS011;4963;51.444;6.528;2023-09-08T02:29:16;7.75;;;6.05;;
9848;SDS011;4963;51.444;6.528;2023-09-08T02:31:43;9.55;;;6.32;;
9848;SDS011;4963;51.444;6.528;2023-09-08T02:34:12;7.50;;;5.43;;
9848;SDS011;4963;51.444;6.528;2023-09-08T02:36:38;8.95;;;6.03;;
9848;SDS011;4963;51.444;6.528;2023-09-08T02:39:06;7.97;;;5.38;;
9848;SDS011;4963;51.444;6.528;2023-09-08T02:41:33;10.07;;;5.75;;
9848;SDS011;4963;51.444;6.528;2023-09-08T02:44:00;7.82;;;6.07;;
9848;SDS011;4963;51.444;6.528;2023-09-08T02:46:28;6.45;;;5.78;;
9848;SDS011;4963;51.444;6.528;2023-09-08T02:48:55;7.18;;;5.63;;
9848;SDS011;4963;51.444;6.528;2023-09-08T02:51:23;7.07;;;6.07;;
9848;SDS011;4963;51.444;6.528;2023-09-08T02:53:50;6.32;;;5.40;;
9848;SDS011;4963;51.444;6.528;2023-09-08T02:56:17;7.47;;;5.32;;
9848;SDS011;4963;51.444;6.528;2023-09-08T02:58:44;7.82;;;5.95;;
9848;SDS011;4963;51.444;6.528;2023-09-08T03:01:11;7.13;;;6.15;;
9848;SDS011;4963;51.444;6.528;2023-09-08T03:03:40;6.70;;;5.53;;
9848;SDS011;4963;51.444;6.528;2023-09-08T03:06:08;7.80;;;5.93;;
9848;SDS011;4963;51.444;6.528;2023-09-08T03:08:37;6.10;;;5.47;;
9848;SDS011;4963;51.444;6.528;2023-09-08T03:11:04;7.72;;;6.60;;
9848;SDS011;4963;51.444;6.528;2023-09-08T03:13:31;8.10;;;5.40;;
9848;SDS011;4963;51.444;6.528;2023-09-08T03:16:01;6.55;;;5.60;;
9848;SDS011;4963;51.444;6.528;2023-09-08T03:18:30;6.55;;;5.28;;
9848;SDS011;4963;51.444;6.528;2023-09-08T03:20:57;8.32;;;6.47;;
9848;SDS011;4963;51.444;6.528;2023-09-08T03:23:25;6.60;;;5.88;;
9848;SDS011;4963;51.444;6.528;2023-09-08T03:25:54;6.22;;;5.45;;
9848;SDS011;4963;51.444;6.528;2023-09-08T03:28:20;6.40;;;5.68;;
9848;SDS011;4963;51.444;6.528;2023-09-08T03:30:47;6.47;;;5.78;;
9848;SDS011;4963;51.444;6.528;2023-09-08T03:33:14;8.57;;;5.82;;
9848;SDS011;4963;51.444;6.528;2023-09-08T03:35:41;9.00;;;6.32;;
9848;SDS011;4963;51.444;6.528;2023-09-08T03:38:09;6.93;;;5.90;;
9848;SDS011;4963;51.444;6.528;2023-09-08T03:40:36;7.47;;;5.78;;
9848;SDS011;4963;51.444;6.528;2023-09-08T03:43:04;9.30;;;6.45;;
9848;SDS011;4963;51.444;6.528;2023-09-08T03:45:31;6.80;;;6.10;;
9848;SDS011;4963;51.444;6.528;2023-09-08T03:47:58;6.68;;;5.88;;
9848;SDS011;4963;51.444;6.528;2023-09-08T03:50:25;7.47;;;5.68;;
9848;SDS011;4963;51.444;6.528;2023-09-08T03:52:52;9.32;;;5.80;;
9848;SDS011;4963;51.444;6.528;2023-09-08T03:55:19;9.98;;;6.55;;
9848;SDS011;4963;51.444;6.528;2023-09-08T03:57:46;10.02;;;6.75;;
9848;SDS011;4963;51.444;6.528;2023-09-08T04:00:15;6.97;;;6.05;;
9848;SDS011;4963;51.444;6.528;2023-09-08T04:02:46;6.93;;;5.72;;
9848;SDS011;4963;51.444;6.528;2023-09-08T04:05:14;6.47;;;5.88;;
9848;SDS011;4963;51.444;6.528;2023-09-08T04:07:42;6.40;;;5.78;;
9848;SDS011;4963;51.444;6.528;2023-09-08T04:10:10;9.55;;;6.57;;
9848;SDS011;4963;51.444;6.528;2023-09-08T04:12:38;7.53;;;6.70;;
9848;SDS011;4963;51.444;6.528;2023-09-08T04:15:05;7.95;;;6.35;;
9848;SDS011;4963;51.444;6.528;2023-09-08T04:17:34;6.38;;;5.65;;
9848;SDS011;4963;51.444;6.528;2023-09-08T04:20:01;7.78;;;5.95;;
9848;SDS011;4963;51.444;6.528;2023-09-08T04:22:30;6.70;;;6.00;;
9848;SDS011;4963;51.444;6.528;2023-09-08T04:24:59;9.57;;;6.38;;
9848;SDS011;4963;51.444;6.528;2023-09-08T04:27:27;8.27;;;5.47;;
9848;SDS011;4963;51.444;6.528;2023-09-08T04:29:54;7.72;;;5.60;;
9848;SDS011;4963;51.444;6.528;2023-09-08T04:32:21;7.85;;;6.22;;
9848;SDS011;4963;51.444;6.528;2023-09-08T04:34:49;7.53;;;6.32;;
9848;SDS011;4963;51.444;6.528;2023-09-08T04:37:16;6.88;;;6.10;;
9848;SDS011;4963;51.444;6.528;2023-09-08T04:39:43;8.10;;;6.22;;
9848;SDS011;4963;51.444;6.528;2023-09-08T04:42:10;7.82;;;6.63;;
9848;SDS011;4963;51.444;6.528;2023-09-08T04:44:38;10.13;;;6.85;;
9848;SDS011;4963;51.444;6.528;2023-09-08T04:47:05;11.80;;;6.80;;
9848;SDS011;4963;51.444;6.528;2023-09-08T04:49:32;6.68;;;5.82;;
9848;SDS011;4963;51.444;6.528;2023-09-08T04:52:00;8.07;;;6.88;;
9848;SDS011;4963;51.444;6.528;2023-09-08T04:54:27;7.57;;;5.97;;
9848;SDS011;4963;51.444;6.528;2023-09-08T04:56:54;7.32;;;6.57;;
9848;SDS011;4963;51.444;6.528;2023-09-08T04:59:21;6.85;;;6.05;;
9848;SDS011;4963;51.444;6.528;2023-09-08T05:01:49;7.15;;;6.15;;
9848;SDS011;4963;51.444;6.528;2023-09-08T05:04:16;8.98;;;6.40;;
9848;SDS011;4963;51.444;6.528;2023-09-08T05:06:43;9.15;;;6.43;;
9848;SDS011;4963;51.444;6.528;2023-09-08T05:09:12;6.72;;;6.03;;
9848;SDS011;4963;51.444;6.528;2023-09-08T05:11:39;9.88;;;6.57;;
9848;SDS011;4963;51.444;6.528;2023-09-08T05:14:06;7.78;;;6.60;;
9848;SDS011;4963;51.444;6.528;2023-09-08T05:16:34;8.52;;;7.03;;
9848;SDS011;4963;51.444;6.528;2023-09-08T05:19:10;8.15;;;6.93;;
9848;SDS011;4963;51.444;6.528;2023-09-08T05:21:37;7.85;;;6.93;;
9848;SDS011;4963;51.444;6.528;2023-09-08T05:24:05;11.80;;;5.93;;
9848;SDS011;4963;51.444;6.528;2023-09-08T05:26:34;7.80;;;6.90;;
9848;SDS011;4963;51.444;6.528;2023-09-08T05:29:03;11.27;;;6.50;;
9848;SDS011;4963;51.444;6.528;2023-09-08T05:31:30;9.55;;;7.07;;
9848;SDS011;4963;51.444;6.528;2023-09-08T05:33:57;10.07;;;6.35;;
9848;SDS011;4963;51.444;6.528;2023-09-08T05:36:24;9.48;;;6.70;;
9848;SDS011;4963;51.444;6.528;2023-09-08T05:38:51;8.32;;;6.80;;
9848;SDS011;4963;51.444;6.528;2023-09-08T05:41:17;8.07;;;7.13;;
9848;SDS011;4963;51.444;6.528;2023-09-08T05:43:46;9.65;;;6.80;;
9848;SDS011;4963;51.444;6.528;2023-09-08T05:46:13;8.02;;;6.00;;
9848;SDS011;4963;51.444;6.528;2023-09-08T05:48:40;7.18;;;6.22;;
9848;SDS011;4963;51.444;6.528;2023-09-08T05:51:07;8.07;;;6.28;;
9848;SDS011;4963;51.444;6.528;2023-09-08T05:53:34;8.40;;;6.68;;
9848;SDS011;4963;51.444;6.528;2023-09-08T05:56:04;7.18;;;6.47;;
9848;SDS011;4963;51.444;6.528;2023-09-08T05:58:31;7.72;;;6.18;;
9848;SDS011;4963;51.444;6.528;2023-09-08T06:01:00;8.93;;;7.07;;
9848;SDS011;4963;51.444;6.528;2023-09-08T06:03:27;9.70;;;6.32;;
9848;SDS011;4963;51.444;6.528;2023-09-08T06:05:55;11.68;;;6.75;;
9848;SDS011;4963;51.444;6.528;2023-09-08T06:08:22;9.05;;;6.32;;
9848;SDS011;4963;51.444;6.528;2023-09-08T06:10:49;10.32;;;5.65;;
9848;SDS011;4963;51.444;6.528;2023-09-08T06:13:16;12.43;;;6.75;;
9848;SDS011;4963;51.444;6.528;2023-09-08T06:15:43;7.72;;;6.10;;
9848;SDS011;4963;51.444;6.528;2023-09-08T06:18:11;10.13;;;7.35;;
9848;SDS011;4963;51.444;6.528;2023-09-08T06:20:43;11.50;;;6.85;;
9848;SDS011;4963;51.444;6.528;2023-09-08T06:23:11;11.82;;;7.22;;
9848;SDS011;4963;51.444;6.528;2023-09-08T06:25:38;8.65;;;7.55;;
9848;SDS011;4963;51.444;6.528;2023-09-08T06:28:05;7.25;;;6.35;;
9848;SDS011;4963;51.444;6.528;2023-09-08T06:30:32;9.18;;;7.80;;
9848;SDS011;4963;51.444;6.528;2023-09-08T06:32:59;9.05;;;7.50;;
9848;SDS011;4963;51.444;6.528;2023-09-08T06:35:27;11.38;;;8.38;;
9848;SDS011;4963;51.444;6.528;2023-09-08T06:37:56;8.48;;;7.63;;
9848;SDS011;4963;51.444;6.528;2023-09-08T06:40:23;8.93;;;7.57;;
9848;SDS011;4963;51.444;6.528;2023-09-08T06:42:50;9.18;;;7.18;;
9848;SDS011;4963;51.444;6.528;2023-09-08T06:45:17;9.07;;;7.63;;
9848;SDS011;4963;51.444;6.528;2023-09-08T06:47:44;8.77;;;7.13;;
9848;SDS011;4963;51.444;6.528;2023-09-08T06:50:11;11.07;;;7.60;;
9848;SDS011;4963;51.444;6.528;2023-09-08T06:52:39;10.15;;;7.13;;
9848;SDS011;4963;51.444;6.528;2023-09-08T06:55:07;10.95;;;7.63;;
9848;SDS011;4963;51.444;6.528;2023-09-08T06:57:34;12.75;;;7.75;;
9848;SDS011;4963;51.444;6.528;2023-09-08T07:00:02;9.63;;;7.07;;
9848;SDS011;4963;51.444;6.528;2023-09-08T07:02:32;9.07;;;7.03;;
9848;SDS011;4963;51.444;6.528;2023-09-08T07:04:59;10.65;;;7.65;;
9848;SDS011;4963;51.444;6.528;2023-09-08T07:07:31;9.80;;;8.10;;
9848;SDS011;4963;51.444;6.528;2023-09-08T07:09:59;15.88;;;9.75;;
9848;SDS011;4963;51.444;6.528;2023-09-08T07:12:26;7.75;;;6.65;;
9848;SDS011;4963;51.444;6.528;2023-09-08T07:14:53;9.27;;;6.43;;
9848;SDS011;4963;51.444;6.528;2023-09-08T07:17:20;8.93;;;6.95;;
9848;SDS011;4963;51.444;6.528;2023-09-08T07:19:49;9.43;;;6.30;;
9848;SDS011;4963;51.444;6.528;2023-09-08T07:22:16;8.82;;;6.88;;
9848;SDS011;4963;51.444;6.528;2023-09-08T07:24:43;8.32;;;6.43;;
9848;SDS011;4963;51.444;6.528;2023-09-08T07:27:12;9.13;;;6.80;;
9848;SDS011;4963;51.444;6.528;2023-09-08T07:29:40;11.95;;;6.00;;
9848;SDS011;4963;51.444;6.528;2023-09-08T07:32:07;8.77;;;6.18;;
9848;SDS011;4963;51.444;6.528;2023-09-08T07:34:34;6.93;;;6.22;;
9848;SDS011;4963;51.444;6.528;2023-09-08T07:37:01;10.25;;;6.63;;
9848;SDS011;4963;51.444;6.528;2023-09-08T07:39:28;7.32;;;6.45;;
9848;SDS011;4963;51.444;6.528;2023-09-08T07:41:55;8.30;;;6.25;;
9848;SDS011;4963;51.444;6.528;2023-09-08T07:44:23;8.27;;;6.32;;
9848;SDS011;4963;51.444;6.528;2023-09-08T07:46:51;8.38;;;6.55;;
9848;SDS011;4963;51.444;6.528;2023-09-08T07:49:18;8.68;;;6.30;;
9848;SDS011;4963;51.444;6.528;2023-09-08T07:51:45;8.52;;;5.88;;
9848;SDS011;4963;51.444;6.528;2023-09-08T07:54:12;7.93;;;5.90;;
9848;SDS011;4963;51.444;6.528;2023-09-08T07:56:39;10.70;;;6.45;;
9848;SDS011;4963;51.444;6.528;2023-09-08T07:59:06;6.63;;;5.90;;
9848;SDS011;4963;51.444;6.528;2023-09-08T08:01:35;6.53;;;5.53;;
9848;SDS011;4963;51.444;6.528;2023-09-08T08:04:02;7.28;;;5.47;;
9848;SDS011;4963;51.444;6.528;2023-09-08T08:06:29;10.02;;;6.13;;
9848;SDS011;4963;51.444;6.528;2023-09-08T08:08:56;7.95;;;5.38;;
9848;SDS011;4963;51.444;6.528;2023-09-08T08:11:23;7.25;;;5.55;;
9848;SDS011;4963;51.444;6.528;2023-09-08T08:13:51;7.43;;;5.93;;
9848;SDS011;4963;51.444;6.528;2023-09-08T08:16:17;6.40;;;5.80;;
9848;SDS011;4963;51.444;6.528;2023-09-08T08:18:48;6.53;;;5.43;;
9848;SDS011;4963;51.444;6.528;2023-09-08T08:21:15;7.90;;;5.93;;
9848;SDS011;4963;51.444;6.528;2023-09-08T08:23:42;9.35;;;5.28;;
9848;SDS011;4963;51.444;6.528;2023-09-08T08:26:09;8.60;;;5.80;;
9848;SDS011;4963;51.444;6.528;2023-09-08T08:28:36;8.77;;;5.15;;
9848;SDS011;4963;51.444;6.528;2023-09-08T08:31:03;6.63;;;5.82;;
9848;SDS011;4963;51.444;6.528;2023-09-08T08:33:30;6.63;;;5.40;;
9848;SDS011;4963;51.444;6.528;2023-09-08T08:35:58;8.63;;;6.18;;
9848;SDS011;4963;51.444;6.528;2023-09-08T08:38:25;7.25;;;5.53;;
9848;SDS011;4963;51.444;6.528;2023-09-08T08:40:52;6.00;;;5.38;;
9848;SDS011;4963;51.444;6.528;2023-09-08T08:43:20;6.10;;;5.50;;
9848;SDS011;4963;51.444;6.528;2023-09-08T08:45:48;7.57;;;5.45;;
9848;SDS011;4963;51.444;6.528;2023-09-08T08:48:16;8.60;;;5.68;;
9848;SDS011;4963;51.444;6.528;2023-09-08T08:50:46;8.57;;;6.45;;
9848;SDS011;4963;51.444;6.528;2023-09-08T08:53:15;6.80;;;5.40;;
9848;SDS011;4963;51.444;6.528;2023-09-08T08:55:46;9.32;;;5.45;;
9848;SDS011;4963;51.444;6.528;2023-09-08T08:58:15;10.65;;;6.00;;
9848;SDS011;4963;51.444;6.528;2023-09-08T09:00:43;7.22;;;5.57;;
9848;SDS011;4963;51.444;6.528;2023-09-08T09:03:10;9.70;;;6.05;;
9848;SDS011;4963;51.444;6.528;2023-09-08T09:05:38;8.35;;;5.75;;
9848;SDS011;4963;51.444;6.528;2023-09-08T09:08:06;6.55;;;5.05;;
9848;SDS011;4963;51.444;6.528;2023-09-08T09:10:35;7.13;;;5.32;;
9848;SDS011;4963;51.444;6.528;2023-09-08T09:13:02;8.05;;;5.47;;
9848;SDS011;4963;51.444;6.528;2023-09-08T09:15:30;10.45;;;7.15;;
9848;SDS011;4963;51.444;6.528;2023-09-08T09:18:04;7.63;;;5.40;;
9848;SDS011;4963;51.444;6.528;2023-09-08T09:20:33;7.68;;;5.88;;
9848;SDS011;4963;51.444;6.528;2023-09-08T09:23:00;7.75;;;5.45;;
9848;SDS011;4963;51.444;6.528;2023-09-08T09:25:29;7.22;;;5.22;;
9848;SDS011;4963;51.444;6.528;2023-09-08T09:27:59;12.23;;;6.38;;
9848;SDS011;4963;51.444;6.528;2023-09-08T09:30:27;11.18;;;5.78;;
9848;SDS011;4963;51.444;6.528;2023-09-08T09:33:07;10.68;;;5.22;;
9848;SDS011;4963;51.444;6.528;2023-09-08T09:35:40;8.25;;;6.15;;
9848;SDS011;4963;51.444;6.528;2023-09-08T09:38:08;5.38;;;4.82;;
9848;SDS011;4963;51.444;6.528;2023-09-08T09:40:35;12.07;;;6.43;;
9848;SDS011;4963;51.444;6.528;2023-09-08T09:43:04;8.48;;;6.25;;
9848;SDS011;4963;51.444;6.528;2023-09-08T09:45:34;8.38;;;6.05;;
9848;SDS011;4963;51.444;6.528;2023-09-08T09:48:02;6.60;;;5.43;;
9848;SDS011;4963;51.444;6.528;2023-09-08T09:50:30;10.43;;;6.00;;
9848;SDS011;4963;51.444;6.528;2023-09-08T09:52:58;7.05;;;5.85;;
9848;SDS011;4963;51.444;6.528;2023-09-08T09:55:27;8.18;;;5.50;;
9848;SDS011;4963;51.444;6.528;2023-09-08T09:57:55;8.85;;;5.80;;
9848;SDS011;4963;51.444;6.528;2023-09-08T10:00:28;6.45;;;5.70;;
9848;SDS011;4963;51.444;6.528;2023-09-08T10:02:55;7.30;;;5.68;;
9848;SDS011;4963;51.444;6.528;2023-09-08T10:05:23;7.00;;;5.65;;
9848;SDS011;4963;51.444;6.528;2023-09-08T10:07:51;11.80;;;5.45;;
9848;SDS011;4963;51.444;6.528;2023-09-08T10:10:19;7.10;;;5.53;;
9848;SDS011;4963;51.444;6.528;2023-09-08T10:12:49;7.13;;;5.30;;
9848;SDS011;4963;51.444;6.528;2023-09-08T10:15:19;8.85;;;6.68;;
9848;SDS011;4963;51.444;6.528;2023-09-08T10:17:51;6.35;;;5.45;;
9848;SDS011;4963;51.444;6.528;2023-09-08T10:20:21;8.18;;;5.93;;
9848;SDS011;4963;51.444;6.528;2023-09-08T10:22:50;7.00;;;5.57;;
9848;SDS011;4963;51.444;6.528;2023-09-08T10:25:21;8.65;;;5.93;;
9848;SDS011;4963;51.444;6.528;2023-09-08T10:27:50;8.43;;;5.78;;
9848;SDS011;4963;51.444;6.528;2023-09-08T10:30:19;7.70;;;5.40;;
9848;SDS011;4963;51.444;6.528;2023-09-08T10:32:48;6.97;;;5.95;;
9848;SDS011;4963;51.444;6.528;2023-09-08T10:35:17;6.28;;;5.38;;
9848;SDS011;4963;51.444;6.528;2023-09-08T10:37:45;9.02;;;5.75;;
9848;SDS011;4963;51.444;6.528;2023-09-08T10:40:19;14.80;;;6.18;;
9848;SDS011;4963;51.444;6.528;2023-09-08T10:42:47;7.15;;;6.43;;
9848;SDS011;4963;51.444;6.528;2023-09-08T10:45:15;7.25;;;5.75;;
9848;SDS011;4963;51.444;6.528;2023-09-08T10:47:56;9.32;;;5.90;;
9848;SDS011;4963;51.444;6.528;2023-09-08T10:50:30;9.38;;;5.90;;
9848;SDS011;4963;51.444;6.528;2023-09-08T10:53:05;6.50;;;5.78;;
9848;SDS011;4963;51.444;6.528;2023-09-08T10:55:36;6.57;;;5.88;;
9848;SDS011;4963;51.444;6.528;2023-09-08T10:58:04;7.35;;;5.80;;
9848;SDS011;4963;51.444;6.528;2023-09-08T11:00:42;7.85;;;5.35;;
9848;SDS011;4963;51.444;6.528;2023-09-08T11:03:12;6.10;;;5.50;;
9848;SDS011;4963;51.444;6.528;2023-09-08T11:05:41;9.57;;;5.68;;
9848;SDS011;4963;51.444;6.528;2023-09-08T11:08:09;7.50;;;5.60;;
9848;SDS011;4963;51.444;6.528;2023-09-08T11:10:36;9.52;;;5.13;;
9848;SDS011;4963;51.444;6.528;2023-09-08T11:13:06;6.60;;;5.60;;
9848;SDS011;4963;51.444;6.528;2023-09-08T11:15:33;8.60;;;6.07;;
9848;SDS011;4963;51.444;6.528;2023-09-08T11:18:04;7.28;;;5.75;;
9848;SDS011;4963;51.444;6.528;2023-09-08T11:20:34;6.10;;;5.47;;
9848;SDS011;4963;51.444;6.528;2023-09-08T11:23:01;6.85;;;5.90;;
9848;SDS011;4963;51.444;6.528;2023-09-08T11:25:31;7.35;;;5.80;;
9848;SDS011;4963;51.444;6.528;2023-09-08T11:27:59;8.07;;;5.57;;
9848;SDS011;4963;51.444;6.528;2023-09-08T11:30:26;9.55;;;5.40;;
9848;SDS011;4963;51.444;6.528;2023-09-08T11:32:54;7.28;;;5.72;;
9848;SDS011;4963;51.444;6.528;2023-09-08T11:35:26;9.38;;;5.60;;
9848;SDS011;4963;51.444;6.528;2023-09-08T11:37:58;8.35;;;6.10;;
9848;SDS011;4963;51.444;6.528;2023-09-08T11:40:27;8.43;;;5.30;;
9848;SDS011;4963;51.444;6.528;2023-09-08T11:42:54;7.93;;;5.50;;
9848;SDS011;4963;51.444;6.528;2023-09-08T11:45:21;8.02;;;5.43;;
9848;SDS011;4963;51.444;6.528;2023-09-08T11:47:49;7.05;;;5.47;;
9848;SDS011;4963;51.444;6.528;2023-09-08T11:50:18;7.07;;;5.57;;
9848;SDS011;4963;51.444;6.528;2023-09-08T11:52:46;7.43;;;5.32;;
9848;SDS011;4963;51.444;6.528;2023-09-08T11:55:15;9.82;;;5.70;;
9848;SDS011;4963;51.444;6.528;2023-09-08T11:57:43;7.53;;;5.72;;
9848;SDS011;4963;51.444;6.528;2023-09-08T12:00:12;6.95;;;5.20;;
9848;SDS011;4963;51.444;6.528;2023-09-08T12:02:43;7.55;;;5.25;;
9848;SDS011;4963;51.444;6.528;2023-09-08T12:05:13;8.63;;;6.13;;
9848;SDS011;4963;51.444;6.528;2023-09-08T12:07:46;8.50;;;5.72;;
9848;SDS011;4963;51.444;6.528;2023-09-08T12:10:15;7.80;;;5.15;;
9848;SDS011;4963;51.444;6.528;2023-09-08T12:12:43;7.25;;;4.85;;
9848;SDS011;4963;51.444;6.528;2023-09-08T12:15:11;6.68;;;5.03;;
9848;SDS011;4963;51.444;6.528;2023-09-08T12:17:55;6.43;;;4.90;;
9848;SDS011;4963;51.444;6.528;2023-09-08T12:20:22;6.47;;;5.65;;
9848;SDS011;4963;51.444;6.528;2023-09-08T12:22:49;9.98;;;5.60;;
9848;SDS011;4963;51.444;6.528;2023-09-08T12:25:18;6.25;;;5.65;;
9848;SDS011;4963;51.444;6.528;2023-09-08T12:27:45;5.80;;;5.13;;
9848;SDS011;4963;51.444;6.528;2023-09-08T12:30:19;7.32;;;5.38;;
9848;SDS011;4963;51.444;6.528;2023-09-08T12:32:47;8.70;;;5.88;;
9848;SDS011;4963;51.444;6.528;2023-09-08T12:35:19;5.60;;;4.80;;
9848;SDS011;4963;51.444;6.528;2023-09-08T12:37:52;8.10;;;5.00;;
9848;SDS011;4963;51.444;6.528;2023-09-08T12:40:24;5.97;;;5.38;;
9848;SDS011;4963;51.444;6.528;2023-09-08T12:42:51;7.65;;;5.70;;
9848;SDS011;4963;51.444;6.528;2023-09-08T12:45:18;8.55;;;5.22;;
9848;SDS011;4963;51.444;6.528;2023-09-08T12:47:46;7.35;;;5.50;;
9848;SDS011;4963;51.444;6.528;2023-09-08T12:50:13;6.13;;;5.30;;
9848;SDS011;4963;51.444;6.528;2023-09-08T12:52:40;6.68;;;4.88;;
9848;SDS011;4963;51.444;6.528;2023-09-08T12:55:07;6.15;;;5.57;;
9848;SDS011;4963;51.444;6.528;2023-09-08T12:57:36;6.10;;;5.38;;
9848;SDS011;4963;51.444;6.528;2023-09-08T13:00:03;9.65;;;6.03;;
9848;SDS011;4963;51.444;6.528;2023-09-08T13:02:32;7.57;;;5.65;;
9848;SDS011;4963;51.444;6.528;2023-09-08T13:04:59;6.38;;;5.25;;
9848;SDS011;4963;51.444;6.528;2023-09-08T13:07:26;8.10;;;5.65;;
9848;SDS011;4963;51.444;6.528;2023-09-08T13:09:53;8.65;;;5.72;;
9848;SDS011;4963;51.444;6.528;2023-09-08T13:12:20;6.05;;;5.47;;
9848;SDS011;4963;51.444;6.528;2023-09-08T13:14:48;7.57;;;5.30;;
9848;SDS011;4963;51.444;6.528;2023-09-08T13:17:15;6.57;;;5.10;;
9848;SDS011;4963;51.444;6.528;2023-09-08T13:19:42;7.43;;;5.82;;
9848;SDS011;4963;51.444;6.528;2023-09-08T13:22:10;9.00;;;5.28;;
9848;SDS011;4963;51.444;6.528;2023-09-08T13:24:37;6.05;;;5.47;;
9848;SDS011;4963;51.444;6.528;2023-09-08T13:27:04;8.13;;;5.70;;
9848;SDS011;4963;51.444;6.528;2023-09-08T13:29:31;7.88;;;5.80;;
9848;SDS011;4963;51.444;6.528;2023-09-08T13:32:18;5.43;;;4.93;;
9848;SDS011;4963;51.444;6.528;2023-09-08T13:34:45;6.28;;;5.00;;
9848;SDS011;4963;51.444;6.528;2023-09-08T13:37:13;7.40;;;5.10;;
9848;SDS011;4963;51.444;6.528;2023-09-08T13:39:41;5.75;;;4.95;;
9848;SDS011;4963;51.444;6.528;2023-09-08T13:42:08;6.78;;;5.32;;
9848;SDS011;4963;51.444;6.528;2023-09-08T13:44:35;8.38;;;5.07;;
9848;SDS011;4963;51.444;6.528;2023-09-08T13:47:02;7.78;;;5.25;;
9848;SDS011;4963;51.444;6.528;2023-09-08T13:49:31;5.50;;;4.97;;
9848;SDS011;4963;51.444;6.528;2023-09-08T13:51:58;5.80;;;4.97;;
9848;SDS011;4963;51.444;6.528;2023-09-08T13:54:25;6.47;;;5.05;;
9848;SDS011;4963;51.444;6.528;2023-09-08T13:56:57;7.35;;;4.88;;
9848;SDS011;4963;51.444;6.528;2023-09-08T13:59:26;6.05;;;5.45;;
9848;SDS011;4963;51.444;6.528;2023-09-08T14:01:54;8.48;;;5.40;;
9848;SDS011;4963;51.444;6.528;2023-09-08T14:04:22;7.75;;;5.28;;
9848;SDS011;4963;51.444;6.528;2023-09-08T14:06:51;8.18;;;5.40;;
9848;SDS011;4963;51.444;6.528;2023-09-08T14:09:17;6.72;;;5.22;;
9848;SDS011;4963;51.444;6.528;2023-09-08T14:11:44;8.48;;;5.55;;
9848;SDS011;4963;51.444;6.528;2023-09-08T14:14:13;6.85;;;5.30;;
9848;SDS011;4963;51.444;6.528;2023-09-08T14:16:40;8.35;;;5.70;;
9848;SDS011;4963;51.444;6.528;2023-09-08T14:19:07;7.60;;;5.50;;
9848;SDS011;4963;51.444;6.528;2023-09-08T14:21:34;6.00;;;5.40;;
9848;SDS011;4963;51.444;6.528;2023-09-08T14:24:04;5.55;;;5.00;;
9848;SDS011;4963;51.444;6.528;2023-09-08T14:26:31;7.13;;;4.88;;
9848;SDS011;4963;51.444;6.528;2023-09-08T14:28:58;8.70;;;5.45;;
9848;SDS011;4963;51.444;6.528;2023-09-08T14:31:25;10.98;;;5.47;;
9848;SDS011;4963;51.444;6.528;2023-09-08T14:33:52;8.35;;;5.68;;
9848;SDS011;4963;51.444;6.528;2023-09-08T14:36:20;7.15;;;5.63;;
9848;SDS011;4963;51.444;6.528;2023-09-08T14:38:47;6.43;;;5.28;;
9848;SDS011;4963;51.444;6.528;2023-09-08T14:41:16;8.15;;;5.25;;
9848;SDS011;4963;51.444;6.528;2023-09-08T14:43:43;5.40;;;4.82;;
9848;SDS011;4963;51.444;6.528;2023-09-08T14:46:10;5.72;;;4.63;;
9848;SDS011;4963;51.444;6.528;2023-09-08T14:48:37;7.75;;;4.75;;
9848;SDS011;4963;51.444;6.528;2023-09-08T14:51:04;5.72;;;4.53;;
9848;SDS011;4963;51.444;6.528;2023-09-08T14:53:31;7.60;;;5.15;;
9848;SDS011;4963;51.444;6.528;2023-09-08T14:55:58;6.00;;;4.70;;
9848;SDS011;4963;51.444;6.528;2023-09-08T14:58:26;8.70;;;5.18;;
9848;SDS011;4963;51.444;6.528;2023-09-08T15:00:58;9.13;;;4.95;;
9848;SDS011;4963;51.444;6.528;2023-09-08T15:03:28;6.05;;;4.78;;
9848;SDS011;4963;51.444;6.528;2023-09-08T15:05:58;6.70;;;4.45;;
9848;SDS011;4963;51.444;6.528;2023-09-08T15:08:25;6.10;;;4.38;;
9848;SDS011;4963;51.444;6.528;2023-09-08T15:10:53;7.20;;;5.20;;
9848;SDS011;4963;51.444;6.528;2023-09-08T15:13:20;6.07;;;5.40;;
9848;SDS011;4963;51.444;6.528;2023-09-08T15:15:48;5.53;;;4.75;;
9848;SDS011;4963;51.444;6.528;2023-09-08T15:18:15;6.72;;;4.70;;
9848;SDS011;4963;51.444;6.528;2023-09-08T15:20:49;9.13;;;4.80;;
9848;SDS011;4963;51.444;6.528;2023-09-08T15:23:17;7.07;;;4.50;;